createdAt,value
2024-04-06T00:00:17.088Z,12.5619
2024-04-06T00:01:18.505Z,12.2734
2024-04-06T00:02:19.904Z,12.6131
2024-04-06T00:03:23.807Z,12.2377
2024-04-06T00:04:23.194Z,12.0556
2024-04-06T00:05:24.485Z,11.8039
2024-04-06T00:06:25.733Z,11.8738
2024-04-06T00:07:27.048Z,11.8846
2024-04-06T00:08:28.319Z,11.6947
2024-04-06T00:09:29.608Z,11.7035
2024-04-06T00:10:30.861Z,11.7935
2024-04-06T00:11:32.169Z,12.2021
2024-04-06T00:12:33.635Z,12.1769
2024-04-06T00:13:35.038Z,12.2218
2024-04-06T00:14:36.307Z,12.2451
2024-04-06T00:15:37.587Z,12.0195
2024-04-06T00:16:38.882Z,12.2142
2024-04-06T00:17:40.172Z,12.1510
2024-04-06T00:18:41.611Z,11.9624
2024-04-06T00:19:43.104Z,11.7467
2024-04-06T00:20:44.488Z,11.4325
2024-04-06T00:21:45.940Z,11.2927
2024-04-06T00:22:47.385Z,11.2696
2024-04-06T00:23:48.812Z,11.3051
2024-04-06T00:24:50.255Z,11.8893
2024-04-06T00:25:51.691Z,11.7112
2024-04-06T00:26:53.189Z,11.6429
2024-04-06T00:27:54.556Z,11.7112
2024-04-06T00:28:55.828Z,11.7065
2024-04-06T00:29:57.134Z,11.5744
2024-04-06T00:30:58.392Z,11.3942
2024-04-06T00:31:59.692Z,11.2659
2024-04-06T00:33:01.149Z,11.5329
2024-04-06T00:34:02.591Z,11.8728
2024-04-06T00:35:04.013Z,12.3194
2024-04-06T00:36:05.445Z,12.4813
2024-04-06T00:37:06.888Z,13.2952
2024-04-06T00:38:08.328Z,13.5876
2024-04-06T00:39:09.774Z,13.1706
2024-04-06T00:40:11.240Z,13.0365
2024-04-06T00:41:12.614Z,13.3283
2024-04-06T00:42:14.067Z,13.8090
2024-04-06T00:43:15.506Z,13.5737
2024-04-06T00:44:16.949Z,13.1869
2024-04-06T00:45:18.381Z,13.5493
2024-04-06T00:46:19.827Z,13.5850
2024-04-06T00:47:21.147Z,13.5444
2024-04-06T00:48:22.450Z,13.3572
2024-04-06T00:49:23.725Z,12.9227
2024-04-06T00:50:25.064Z,12.9614
2024-04-06T00:51:26.400Z,13.3384
2024-04-06T00:52:27.819Z,13.3113
2024-04-06T00:53:29.317Z,13.3632
2024-04-06T00:54:30.698Z,13.3451
2024-04-06T00:55:32.147Z,13.2534
2024-04-06T00:56:33.584Z,13.3841
2024-04-06T00:57:35.025Z,13.6407
2024-04-06T00:58:36.365Z,13.3363
2024-04-06T00:59:37.705Z,13.2501
2024-04-06T01:00:39.032Z,13.2441
2024-04-06T01:01:44.326Z,13.7640
2024-04-06T01:02:40.332Z,13.7921
2024-04-06T01:03:41.758Z,13.7598
2024-04-06T01:04:43.198Z,13.4232
2024-04-06T01:05:44.517Z,13.3421
2024-04-06T01:06:45.845Z,13.8517
2024-04-06T01:07:47.183Z,13.8903
2024-04-06T01:08:48.628Z,13.6351
2024-04-06T01:09:50.067Z,13.7164
2024-04-06T01:10:51.506Z,13.7377
2024-04-06T01:11:52.946Z,13.7405
2024-04-06T01:12:54.376Z,13.9078
2024-04-06T01:13:55.816Z,13.8132
2024-04-06T01:14:57.259Z,13.7743
2024-04-06T01:15:58.766Z,13.9384
2024-04-06T01:17:00.157Z,13.8588
2024-04-06T01:18:01.587Z,13.6293
2024-04-06T01:19:03.031Z,13.7760
2024-04-06T01:20:04.462Z,14.0724
2024-04-06T01:21:05.898Z,14.2346
2024-04-06T01:22:07.348Z,14.3930
2024-04-06T01:23:08.644Z,14.3553
2024-04-06T01:24:10.057Z,14.2695
2024-04-06T01:25:11.377Z,14.0411
2024-04-06T01:26:12.846Z,13.6742
2024-04-06T01:27:14.198Z,13.7859
2024-04-06T01:28:15.647Z,13.7015
2024-04-06T01:29:17.070Z,13.9296
2024-04-06T01:30:18.511Z,14.2690
2024-04-06T01:31:19.943Z,14.2090
2024-04-06T01:32:21.477Z,14.3534
2024-04-06T01:33:22.827Z,14.5830
2024-04-06T01:34:24.282Z,14.8006
2024-04-06T01:35:25.862Z,14.7949
2024-04-06T01:36:27.226Z,14.8154
2024-04-06T01:37:28.595Z,14.7327
2024-04-06T01:38:30.107Z,14.8212
2024-04-06T01:39:31.495Z,14.7353
2024-04-06T01:40:33.048Z,14.6083
2024-04-06T01:41:34.378Z,14.5738
2024-04-06T01:42:35.827Z,14.6474
2024-04-06T01:43:37.263Z,14.7254
2024-04-06T01:44:38.711Z,15.1733
2024-04-06T01:45:40.137Z,15.0246
2024-04-06T01:46:41.577Z,15.1972
2024-04-06T01:47:43.026Z,15.2335
2024-04-06T01:48:44.375Z,15.0956
2024-04-06T01:49:45.687Z,14.4896
2024-04-06T01:50:47.009Z,14.3336
2024-04-06T01:51:48.459Z,14.1360
2024-04-06T01:52:49.907Z,14.0168
2024-04-06T01:53:51.315Z,13.6945
2024-04-06T01:54:52.602Z,13.7298
2024-04-06T01:55:53.947Z,13.9821
2024-04-06T01:56:55.345Z,13.9638
2024-04-06T01:57:56.774Z,13.7600
2024-04-06T01:58:58.229Z,14.2973
2024-04-06T01:59:59.672Z,14.5053
2024-04-06T02:01:01.118Z,14.5961
2024-04-06T02:02:02.545Z,14.8554
2024-04-06T02:03:03.848Z,14.6277
2024-04-06T02:04:05.190Z,14.7485
2024-04-06T02:05:06.539Z,14.8152
2024-04-06T02:06:07.949Z,14.8967
2024-04-06T02:07:09.430Z,14.8058
2024-04-06T02:08:10.862Z,14.5369
2024-04-06T02:09:12.316Z,14.7266
2024-04-06T02:10:13.752Z,14.8380
2024-04-06T02:11:15.167Z,14.6148
2024-04-06T02:12:16.639Z,14.9307
2024-04-06T02:13:18.073Z,15.0353
2024-04-06T02:14:19.607Z,14.9819
2024-04-06T02:15:20.924Z,14.8451
2024-04-06T02:16:22.387Z,14.7034
2024-04-06T02:17:23.861Z,14.7076
2024-04-06T02:18:25.267Z,14.8669
2024-04-06T02:19:26.783Z,15.0392
2024-04-06T02:20:28.232Z,14.7505
2024-04-06T02:21:29.594Z,14.7211
2024-04-06T02:22:31.353Z,14.5083
2024-04-06T02:23:32.794Z,14.6330
2024-04-06T02:24:34.261Z,14.9443
2024-04-06T02:25:35.662Z,14.3939
2024-04-06T02:26:37.089Z,14.2397
2024-04-06T02:27:38.552Z,14.2585
2024-04-06T02:28:39.981Z,14.3691
2024-04-06T02:29:41.430Z,14.6707
2024-04-06T02:30:42.709Z,14.5351
2024-04-06T02:31:44.070Z,14.8209
2024-04-06T02:32:45.429Z,14.9855
2024-04-06T02:33:46.856Z,15.0207
2024-04-06T02:34:48.337Z,14.8485
2024-04-06T02:35:49.745Z,14.9483
2024-04-06T02:36:51.037Z,15.1159
2024-04-06T02:37:52.355Z,15.0965
2024-04-06T02:38:53.682Z,14.6030
2024-04-06T02:39:54.955Z,14.2331
2024-04-06T02:40:56.251Z,13.7622
2024-04-06T02:41:57.774Z,13.0148
2024-04-06T02:42:59.261Z,12.5571
2024-04-06T02:44:00.620Z,12.4326
2024-04-06T02:45:02.155Z,12.1508
2024-04-06T02:46:03.501Z,12.1661
2024-04-06T02:47:04.943Z,11.8785
2024-04-06T02:48:06.386Z,11.6187
2024-04-06T02:49:07.816Z,11.7307
2024-04-06T02:50:09.248Z,11.6256
2024-04-06T02:51:10.704Z,11.4998
2024-04-06T02:52:12.143Z,11.3293
2024-04-06T02:53:13.567Z,11.3317
2024-04-06T02:54:15.026Z,11.2046
2024-04-06T02:55:16.466Z,11.3452
2024-04-06T02:56:17.911Z,11.4327
2024-04-06T02:57:19.346Z,11.1979
2024-04-06T02:58:20.755Z,10.9022
2024-04-06T02:59:22.212Z,10.7469
2024-04-06T03:00:23.666Z,10.6459
2024-04-06T03:01:25.097Z,10.5284
2024-04-06T03:02:26.575Z,10.4253
2024-04-06T03:03:27.995Z,10.5059
2024-04-06T03:04:29.415Z,10.8419
2024-04-06T03:05:30.724Z,11.2725
2024-04-06T03:06:32.007Z,11.9517
2024-04-06T03:07:33.526Z,11.9636
2024-04-06T03:08:34.867Z,11.9812
2024-04-06T03:09:36.316Z,12.2797
2024-04-06T03:10:37.732Z,12.2685
2024-04-06T03:11:39.186Z,12.7171
2024-04-06T03:12:40.599Z,12.6494
2024-04-06T03:13:42.068Z,12.9815
2024-04-06T03:14:43.377Z,13.0206
2024-04-06T03:15:44.952Z,12.8574
2024-04-06T03:16:46.385Z,12.8962
2024-04-06T03:17:47.815Z,12.9078
2024-04-06T03:18:49.259Z,12.8758
2024-04-06T03:19:50.715Z,12.7193
2024-04-06T03:20:52.019Z,12.7820
2024-04-06T03:21:53.308Z,12.6114
2024-04-06T03:22:54.712Z,12.6292
2024-04-06T03:23:56.234Z,12.4774
2024-04-06T03:24:57.696Z,12.2776
2024-04-06T03:25:59.028Z,12.2691
2024-04-06T03:27:00.450Z,12.0844
2024-04-06T03:28:01.944Z,12.0780
2024-04-06T03:29:03.335Z,12.3863
2024-04-06T03:30:04.798Z,12.1997
2024-04-06T03:31:06.212Z,12.1683
2024-04-06T03:32:07.746Z,12.0338
2024-04-06T03:33:09.106Z,12.0574
2024-04-06T03:34:10.545Z,11.9066
2024-04-06T03:35:11.988Z,11.5629
2024-04-06T03:36:13.427Z,11.3177
2024-04-06T03:37:14.869Z,11.2043
2024-04-06T03:38:16.301Z,11.3771
2024-04-06T03:39:17.731Z,11.6160
2024-04-06T03:40:19.014Z,11.6994
2024-04-06T03:41:20.344Z,11.5877
2024-04-06T03:42:21.752Z,11.5829
2024-04-06T03:43:23.042Z,11.6609
2024-04-06T03:44:24.437Z,11.6638
2024-04-06T03:45:25.754Z,11.7941
2024-04-06T03:46:27.064Z,11.8725
2024-04-06T03:47:28.379Z,11.9595
2024-04-06T03:48:29.734Z,12.0403
2024-04-06T03:49:31.170Z,12.0919
2024-04-06T03:50:32.674Z,12.1607
2024-04-06T03:51:34.027Z,12.2537
2024-04-06T03:52:35.339Z,11.9969
2024-04-06T03:53:36.620Z,11.9144
2024-04-06T03:54:38.055Z,11.7889
2024-04-06T03:55:39.492Z,11.6636
2024-04-06T03:56:40.946Z,11.8676
2024-04-06T03:57:42.375Z,12.2222
2024-04-06T03:58:43.826Z,12.0888
2024-04-06T03:59:45.266Z,12.0841
2024-04-06T04:00:46.704Z,12.0863
2024-04-06T04:01:48.144Z,12.1186
2024-04-06T04:02:49.574Z,11.9514
2024-04-06T04:03:51.015Z,11.9620
2024-04-06T04:04:52.455Z,11.8064
2024-04-06T04:05:53.910Z,12.0194
2024-04-06T04:06:55.354Z,12.0382
2024-04-06T04:07:56.784Z,11.9490
2024-04-06T04:08:58.234Z,11.9521
2024-04-06T04:09:59.655Z,11.9699
2024-04-06T04:11:01.112Z,11.9243
2024-04-06T04:12:02.530Z,11.9696
2024-04-06T04:13:03.978Z,12.0018
2024-04-06T04:14:05.409Z,11.9972
2024-04-06T04:15:06.853Z,11.9810
2024-04-06T04:16:08.286Z,11.8296
2024-04-06T04:17:09.735Z,11.8519
2024-04-06T04:18:11.174Z,11.8098
2024-04-06T04:19:12.609Z,11.6578
2024-04-06T04:20:13.905Z,11.6711
2024-04-06T04:21:15.198Z,11.6463
2024-04-06T04:22:16.504Z,11.7654
2024-04-06T04:23:17.849Z,11.7181
2024-04-06T04:24:19.164Z,11.7665
2024-04-06T04:25:20.616Z,11.9690
2024-04-06T04:26:22.055Z,11.9768
2024-04-06T04:27:23.498Z,11.9944
2024-04-06T04:28:24.936Z,11.9705
2024-04-06T04:29:26.395Z,12.0363
2024-04-06T04:30:27.826Z,12.1125
2024-04-06T04:31:29.286Z,12.0641
2024-04-06T04:32:30.754Z,11.8387
2024-04-06T04:33:32.140Z,11.7150
2024-04-06T04:34:33.580Z,11.7406
2024-04-06T04:35:35.051Z,11.8125
2024-04-06T04:36:36.386Z,11.6828
2024-04-06T04:37:37.688Z,11.7442
2024-04-06T04:38:39.056Z,12.0203
2024-04-06T04:39:40.462Z,11.9141
2024-04-06T04:40:41.742Z,11.9548
2024-04-06T04:41:43.067Z,11.8766
2024-04-06T04:42:44.462Z,11.8098
2024-04-06T04:43:45.906Z,11.9470
2024-04-06T04:44:53.483Z,12.1823
2024-04-06T04:45:47.529Z,12.0329
2024-04-06T04:46:49.075Z,11.9207
2024-04-06T04:47:50.470Z,11.6510
2024-04-06T04:48:51.774Z,11.5430
2024-04-06T04:49:53.297Z,11.5056
2024-04-06T04:50:54.599Z,11.3460
2024-04-06T04:51:55.949Z,11.2466
2024-04-06T04:52:57.238Z,11.1324
2024-04-06T04:53:58.707Z,10.8774
2024-04-06T04:55:00.171Z,10.4497
2024-04-06T04:56:01.607Z,10.3104
2024-04-06T04:57:02.908Z,10.1669
2024-04-06T04:58:04.297Z,10.1966
2024-04-06T04:59:05.630Z,10.2075
2024-04-06T05:00:07.011Z,10.3127
2024-04-06T05:01:08.539Z,10.3799
2024-04-06T05:02:09.906Z,10.5064
2024-04-06T05:03:11.337Z,10.4820
2024-04-06T05:04:12.607Z,10.5320
2024-04-06T05:05:13.896Z,10.5298
2024-04-06T05:06:15.203Z,10.7279
2024-04-06T05:07:16.458Z,10.7013
2024-04-06T05:08:17.759Z,11.0857
2024-04-06T05:09:19.010Z,11.6067
2024-04-06T05:10:20.259Z,11.4212
2024-04-06T05:11:21.614Z,11.4354
2024-04-06T05:12:23.023Z,11.8442
2024-04-06T05:13:24.471Z,11.7346
2024-04-06T05:14:25.918Z,11.7319
2024-04-06T05:15:27.349Z,11.9589
2024-04-06T05:16:28.833Z,12.0583
2024-04-06T05:17:30.244Z,12.0045
2024-04-06T05:18:31.677Z,12.0833
2024-04-06T05:19:32.982Z,11.9006
2024-04-06T05:20:34.324Z,11.6861
2024-04-06T05:21:35.682Z,11.6873
2024-04-06T05:22:37.112Z,11.7269
2024-04-06T05:23:38.627Z,11.7267
2024-04-06T05:24:39.965Z,11.9729
2024-04-06T05:25:41.234Z,11.8394
2024-04-06T05:26:42.589Z,11.8745
2024-04-06T05:27:43.962Z,12.0689
2024-04-06T05:28:45.231Z,12.1589
2024-04-06T05:29:46.543Z,12.0308
2024-04-06T05:30:47.986Z,11.9936
2024-04-06T05:31:49.418Z,12.0456
2024-04-06T05:32:50.698Z,12.0566
2024-04-06T05:33:51.994Z,12.1411
2024-04-06T05:34:53.432Z,12.2292
2024-04-06T05:35:54.858Z,12.2610
2024-04-06T05:36:56.314Z,12.1857
2024-04-06T05:37:57.738Z,12.2098
2024-04-06T05:38:59.006Z,12.3502
2024-04-06T05:40:00.298Z,12.4564
2024-04-06T05:41:01.737Z,12.5949
2024-04-06T05:42:03.191Z,12.4762
2024-04-06T05:43:04.624Z,12.4121
2024-04-06T05:44:07.597Z,12.5527
2024-04-06T05:45:09.007Z,12.5379
2024-04-06T05:46:10.259Z,12.6928
2024-04-06T05:47:11.669Z,12.8156
2024-04-06T05:48:13.099Z,12.8616
2024-04-06T05:49:14.607Z,12.8709
2024-04-06T05:50:15.988Z,12.9433
2024-04-06T05:51:17.418Z,13.0138
2024-04-06T05:52:18.707Z,13.1290
2024-04-06T05:53:20.066Z,13.2334
2024-04-06T05:54:21.420Z,13.2746
2024-04-06T05:55:22.666Z,13.4057
2024-04-06T05:56:23.987Z,13.3707
2024-04-06T05:57:25.431Z,13.3003
2024-04-06T05:58:26.861Z,13.3673
2024-04-06T05:59:28.321Z,13.3454
2024-04-06T06:00:29.740Z,13.3651
2024-04-06T06:01:31.199Z,13.3459
2024-04-06T06:02:32.728Z,13.4224
2024-04-06T06:03:33.979Z,13.5091
2024-04-06T06:04:35.499Z,13.4318
2024-04-06T06:05:36.789Z,13.4395
2024-04-06T06:06:38.051Z,13.5008
2024-04-06T06:07:39.512Z,13.5009
2024-04-06T06:08:40.953Z,13.3057
2024-04-06T06:09:42.377Z,13.4112
2024-04-06T06:10:43.884Z,13.4423
2024-04-06T06:11:45.271Z,13.6707
2024-04-06T06:12:46.717Z,13.7171
2024-04-06T06:13:48.147Z,13.7468
2024-04-06T06:14:49.576Z,13.9549
2024-04-06T06:15:51.026Z,13.9412
2024-04-06T06:16:52.507Z,13.9441
2024-04-06T06:17:53.923Z,14.0226
2024-04-06T06:18:55.326Z,13.8848
2024-04-06T06:19:56.595Z,14.0540
2024-04-06T06:20:58.007Z,14.0410
2024-04-06T06:21:59.346Z,13.9731
2024-04-06T06:23:00.792Z,13.9940
2024-04-06T06:24:02.254Z,14.1036
2024-04-06T06:25:03.676Z,14.0495
2024-04-06T06:26:05.107Z,14.1388
2024-04-06T06:27:06.568Z,14.0619
2024-04-06T06:28:07.985Z,14.2356
2024-04-06T06:29:09.448Z,14.2645
2024-04-06T06:30:10.868Z,14.3807
2024-04-06T06:31:12.303Z,14.5048
2024-04-06T06:32:13.753Z,14.5197
2024-04-06T06:33:15.195Z,14.5837
2024-04-06T06:34:16.654Z,14.8934
2024-04-06T06:35:18.069Z,14.9332
2024-04-06T06:38:20.511Z,14.9167
2024-04-06T06:41:23.573Z,15.0297
2024-04-06T06:42:24.934Z,14.8198
2024-04-06T06:43:26.384Z,14.8107
2024-04-06T06:44:27.838Z,14.7891
2024-04-06T06:45:29.269Z,14.7964
2024-04-06T06:46:30.693Z,14.7865
2024-04-06T06:47:32.179Z,14.6729
2024-04-06T06:48:33.570Z,14.6487
2024-04-06T06:49:35.017Z,14.7634
2024-04-06T06:50:36.455Z,14.6974
2024-04-06T06:51:37.896Z,14.8264
2024-04-06T06:52:39.352Z,14.6709
2024-04-06T06:53:40.622Z,14.7227
2024-04-06T06:54:42.828Z,14.7470
2024-04-06T06:55:44.237Z,14.6812
2024-04-06T06:56:45.682Z,14.6690
2024-04-06T06:57:47.131Z,14.6627
2024-04-06T06:58:48.366Z,14.6013
2024-04-06T07:00:50.346Z,14.7923
2024-04-06T07:01:51.650Z,14.6509
2024-04-06T07:02:52.909Z,14.2818
2024-04-06T07:03:54.208Z,14.2073
2024-04-06T07:04:55.458Z,14.2543
2024-04-06T07:05:56.897Z,14.4528
2024-04-06T07:07:58.937Z,14.4832
2024-04-06T07:09:02.748Z,14.5336
2024-04-06T07:10:00.786Z,14.4395
2024-04-06T07:11:02.078Z,14.3895
2024-04-06T07:12:03.325Z,14.3944
2024-04-06T07:13:04.652Z,14.4104
2024-04-06T07:14:06.082Z,14.4458
2024-04-06T07:15:07.498Z,14.6118
2024-04-06T07:16:08.775Z,14.6060
2024-04-06T07:17:10.060Z,14.6804
2024-04-06T07:18:11.329Z,14.5746
2024-04-06T07:19:12.927Z,14.6358
2024-04-06T07:20:14.190Z,14.7558
2024-04-06T07:21:15.505Z,14.8221
2024-04-06T07:22:16.956Z,14.9572
2024-04-06T07:23:18.286Z,15.0020
2024-04-06T07:24:19.553Z,15.0483
2024-04-06T07:25:20.814Z,15.1466
2024-04-06T07:26:22.078Z,15.1975
2024-04-06T07:27:23.503Z,14.9904
2024-04-06T07:28:24.942Z,14.9624
2024-04-06T07:29:26.386Z,15.1261
2024-04-06T07:30:27.833Z,15.2500
2024-04-06T07:31:29.279Z,15.3444
2024-04-06T07:32:30.770Z,15.3821
2024-04-06T07:33:32.124Z,15.4595
2024-04-06T07:34:33.595Z,15.4141
2024-04-06T07:35:35.020Z,15.3794
2024-04-06T07:36:36.471Z,15.4910
2024-04-06T07:37:37.898Z,15.6138
2024-04-06T07:39:20.084Z,15.8105
2024-04-06T07:39:39.298Z,15.8534
2024-04-06T07:40:40.625Z,15.7596
2024-04-06T07:41:42.055Z,15.7889
2024-04-06T07:42:43.498Z,15.8472
2024-04-06T07:43:44.944Z,15.9363
2024-04-06T07:44:46.380Z,15.9534
2024-04-06T07:45:47.671Z,16.0161
2024-04-06T07:46:49.525Z,16.0547
2024-04-06T07:47:50.968Z,16.1521
2024-04-06T07:48:52.381Z,16.4067
2024-04-06T07:49:53.835Z,16.5888
2024-04-06T07:50:55.286Z,16.4400
2024-04-06T07:51:56.728Z,16.6039
2024-04-06T07:52:58.151Z,16.7182
2024-04-06T07:53:59.442Z,16.6632
2024-04-06T07:55:00.727Z,16.2077
2024-04-06T07:56:02.018Z,16.3571
2024-04-06T07:57:03.425Z,16.0558
2024-04-06T07:58:04.713Z,15.8818
2024-04-06T07:59:06.014Z,15.8493
2024-04-06T08:00:07.454Z,15.9452
2024-04-06T08:01:08.797Z,15.8639
2024-04-06T08:02:10.208Z,16.1873
2024-04-06T08:03:11.657Z,16.3951
2024-04-06T08:04:12.981Z,16.7411
2024-04-06T08:05:14.305Z,16.4708
2024-04-06T08:06:15.697Z,16.1887
2024-04-06T08:07:17.131Z,15.8299
2024-04-06T08:08:18.456Z,15.6801
2024-04-06T08:09:19.745Z,15.8001
2024-04-06T08:10:21.226Z,15.9371
2024-04-06T08:11:22.537Z,16.0403
2024-04-06T08:12:23.997Z,16.0759
2024-04-06T08:13:25.431Z,15.9418
2024-04-06T08:14:26.846Z,16.0437
2024-04-06T08:15:30.830Z,16.2294
2024-04-06T08:16:29.738Z,16.2672
2024-04-06T08:17:31.197Z,16.2467
2024-04-06T08:18:32.620Z,16.2185
2024-04-06T08:19:34.066Z,16.4334
2024-04-06T08:20:35.494Z,16.7749
2024-04-06T08:21:36.788Z,16.8415
2024-04-06T08:22:38.053Z,16.8019
2024-04-06T08:23:39.502Z,17.1070
2024-04-06T08:24:40.996Z,17.2716
2024-04-06T08:25:42.411Z,17.0558
2024-04-06T08:26:43.813Z,17.0042
2024-04-06T08:27:45.097Z,16.8381
2024-04-06T08:28:46.526Z,17.0083
2024-04-06T08:29:47.818Z,16.9714
2024-04-06T08:30:49.121Z,17.1467
2024-04-06T08:31:50.462Z,17.0932
2024-04-06T08:32:51.730Z,17.1247
2024-04-06T08:33:53.036Z,17.3341
2024-04-06T08:34:54.393Z,17.0393
2024-04-06T08:35:55.822Z,16.9155
2024-04-06T08:36:57.270Z,17.0542
2024-04-06T08:37:58.723Z,17.4474
2024-04-06T08:39:00.148Z,17.5685
2024-04-06T08:40:01.604Z,17.0294
2024-04-06T08:41:03.017Z,16.9823
2024-04-06T08:42:04.459Z,17.2807
2024-04-06T08:43:05.911Z,17.4084
2024-04-06T08:44:07.348Z,17.3687
2024-04-06T08:45:08.765Z,17.2895
2024-04-06T08:46:10.252Z,17.4070
2024-04-06T08:47:11.656Z,17.3605
2024-04-06T08:48:13.102Z,17.8141
2024-04-06T08:49:14.580Z,17.6412
2024-04-06T08:50:15.986Z,17.7201
2024-04-06T08:51:17.422Z,18.1030
2024-04-06T08:52:18.857Z,18.2932
2024-04-06T08:53:20.343Z,18.1663
2024-04-06T08:54:21.767Z,18.1349
2024-04-06T08:55:23.177Z,18.3444
2024-04-06T08:56:24.627Z,18.3133
2024-04-06T08:57:26.056Z,18.3140
2024-04-06T08:58:27.356Z,18.3733
2024-04-06T08:59:28.636Z,18.6437
2024-04-06T09:00:30.098Z,18.6974
2024-04-06T09:01:31.488Z,18.5450
2024-04-06T09:02:32.935Z,19.1245
2024-04-06T09:03:34.389Z,18.6393
2024-04-06T09:04:35.839Z,18.5788
2024-04-06T09:05:37.247Z,18.2951
2024-04-06T09:06:38.694Z,18.5168
2024-04-06T09:07:40.133Z,18.7191
2024-04-06T09:08:41.580Z,19.2170
2024-04-06T09:09:43.012Z,19.9633
2024-04-06T09:10:44.464Z,20.3891
2024-04-06T09:11:45.894Z,20.9474
2024-04-06T09:12:47.379Z,20.4056
2024-04-06T09:13:48.907Z,21.0548
2024-04-06T09:14:50.245Z,20.3989
2024-04-06T09:15:51.662Z,20.5754
2024-04-06T09:16:53.170Z,20.4427
2024-04-06T09:17:54.541Z,20.9218
2024-04-06T09:18:55.979Z,20.3751
2024-04-06T09:19:57.425Z,20.9103
2024-04-06T09:20:58.863Z,21.1932
2024-04-06T09:22:00.300Z,21.4394
2024-04-06T09:23:01.577Z,21.1964
2024-04-06T09:24:02.844Z,20.9625
2024-04-06T09:25:04.338Z,21.1596
2024-04-06T09:26:05.603Z,20.8572
2024-04-06T09:27:06.895Z,20.5669
2024-04-06T09:28:08.318Z,20.3422
2024-04-06T09:29:09.753Z,20.8476
2024-04-06T09:30:11.125Z,20.9940
2024-04-06T09:31:12.459Z,21.3566
2024-04-06T09:32:13.744Z,22.4026
2024-04-06T09:33:15.180Z,22.7492
2024-04-06T09:34:16.649Z,21.6893
2024-04-06T09:35:18.120Z,22.3303
2024-04-06T09:36:19.587Z,22.0565
2024-04-06T09:37:20.944Z,22.3520
2024-04-06T09:38:25.663Z,22.2115
2024-04-06T09:39:23.826Z,20.8787
2024-04-06T09:40:25.254Z,21.4805
2024-04-06T09:41:26.698Z,21.3941
2024-04-06T09:42:27.977Z,21.2297
2024-04-06T09:43:29.276Z,21.4804
2024-04-06T09:44:30.708Z,21.3013
2024-04-06T09:45:32.145Z,20.9268
2024-04-06T09:46:33.596Z,21.9645
2024-04-06T09:47:35.014Z,22.3096
2024-04-06T09:48:36.455Z,22.2703
2024-04-06T09:49:37.815Z,21.9555
2024-04-06T09:50:39.105Z,21.0374
2024-04-06T09:51:40.465Z,20.7429
2024-04-06T09:52:41.898Z,21.2281
2024-04-06T09:53:43.343Z,20.8311
2024-04-06T09:54:44.776Z,21.0917
2024-04-06T09:55:46.225Z,21.4199
2024-04-06T09:56:47.679Z,21.0614
2024-04-06T09:57:48.941Z,20.7908
2024-04-06T09:58:50.249Z,21.1957
2024-04-06T09:59:52.397Z,20.8115
2024-04-06T10:00:54.667Z,20.5030
2024-04-06T10:01:56.106Z,20.6431
2024-04-06T10:02:57.548Z,20.5662
2024-04-06T10:03:58.978Z,20.1521
2024-04-06T10:05:00.347Z,20.3382
2024-04-06T10:06:01.621Z,20.2203
2024-04-06T10:07:02.908Z,20.5638
2024-04-06T10:08:04.252Z,20.0591
2024-04-06T10:09:05.560Z,19.8731
2024-04-06T10:10:07.016Z,20.1562
2024-04-06T10:11:08.464Z,20.4944
2024-04-06T10:12:09.904Z,20.4534
2024-04-06T10:13:11.350Z,20.2487
2024-04-06T10:14:13.795Z,20.5051
2024-04-06T10:15:16.079Z,20.8425
2024-04-06T10:16:17.456Z,21.4354
2024-04-06T10:17:18.744Z,21.4761
2024-04-06T10:18:20.138Z,21.1503
2024-04-06T10:19:21.599Z,20.7259
2024-04-06T10:20:22.855Z,20.9171
2024-04-06T10:21:24.141Z,21.2160
2024-04-06T10:22:25.600Z,21.6247
2024-04-06T10:23:27.028Z,21.5820
2024-04-06T10:24:28.458Z,21.3074
2024-04-06T10:25:29.898Z,21.2025
2024-04-06T10:26:31.341Z,21.1331
2024-04-06T10:27:32.772Z,21.1739
2024-04-06T10:28:34.234Z,20.8764
2024-04-06T10:29:35.656Z,20.7765
2024-04-06T10:30:37.120Z,20.5896
2024-04-06T10:31:46.058Z,20.5198
2024-04-06T10:32:38.668Z,20.6986
2024-04-06T10:33:40.116Z,20.7796
2024-04-06T10:34:49.690Z,20.4939
2024-04-06T10:35:41.597Z,21.6819
2024-04-06T10:36:42.919Z,21.9938
2024-04-06T10:37:44.246Z,22.1195
2024-04-06T10:38:45.627Z,22.3776
2024-04-06T10:39:46.881Z,22.1966
2024-04-06T10:40:48.308Z,21.7893
2024-04-06T10:41:49.855Z,22.0856
2024-04-06T10:42:51.176Z,21.9169
2024-04-06T10:43:52.622Z,21.7359
2024-04-06T10:44:54.056Z,22.3246
2024-04-06T10:45:55.528Z,23.1031
2024-04-06T10:46:56.990Z,23.1272
2024-04-06T10:47:58.404Z,23.8913
2024-04-06T10:48:59.767Z,23.8722
2024-04-06T10:50:01.125Z,23.3651
2024-04-06T10:51:02.447Z,23.3852
2024-04-06T10:52:03.819Z,24.2715
2024-04-06T10:53:05.242Z,24.1172
2024-04-06T10:54:06.691Z,23.5263
2024-04-06T10:55:08.131Z,24.0426
2024-04-06T10:56:09.658Z,24.9711
2024-04-06T10:57:11.101Z,24.3524
2024-04-06T10:58:12.481Z,24.8175
2024-04-06T10:59:13.814Z,24.6928
2024-04-06T11:00:15.104Z,25.7309
2024-04-06T11:01:16.483Z,25.6844
2024-04-06T11:02:17.904Z,24.8465
2024-04-06T11:03:19.348Z,23.5715
2024-04-06T11:04:20.898Z,23.4616
2024-04-06T11:05:22.266Z,23.3830
2024-04-06T11:06:23.669Z,24.1282
2024-04-06T11:07:25.099Z,23.6920
2024-04-06T11:08:26.365Z,23.4313
2024-04-06T11:09:27.645Z,23.5532
2024-04-06T11:10:28.934Z,24.5195
2024-04-06T11:11:30.209Z,24.3802
2024-04-06T11:12:31.657Z,24.4329
2024-04-06T11:13:33.102Z,25.2227
2024-04-06T11:14:34.537Z,24.7435
2024-04-06T11:15:35.987Z,24.1326
2024-04-06T11:16:37.539Z,23.6314
2024-04-06T11:17:38.931Z,23.5706
2024-04-06T11:18:42.159Z,23.4404
2024-04-06T11:19:43.628Z,24.5335
2024-04-06T11:20:45.087Z,24.5614
2024-04-06T11:21:46.434Z,25.0193
2024-04-06T11:22:47.768Z,24.1832
2024-04-06T11:23:49.405Z,24.2319
2024-04-06T11:24:50.847Z,23.8530
2024-04-06T11:25:52.274Z,25.2300
2024-04-06T11:26:53.717Z,24.4047
2024-04-06T11:27:55.204Z,24.4444
2024-04-06T11:28:56.608Z,25.0492
2024-04-06T11:29:58.880Z,25.3790
2024-04-06T11:31:01.430Z,24.9810
2024-04-06T11:32:02.699Z,24.7257
2024-04-06T11:33:04.001Z,24.5358
2024-04-06T11:34:05.418Z,24.0362
2024-04-06T11:35:06.872Z,24.2020
2024-04-06T11:36:08.308Z,23.6260
2024-04-06T11:37:09.815Z,23.4730
2024-04-06T11:38:11.175Z,23.8054
2024-04-06T11:39:12.612Z,24.2829
2024-04-06T11:40:14.062Z,23.9812
2024-04-06T11:41:15.498Z,24.0896
2024-04-06T11:42:16.956Z,23.7033
2024-04-06T11:43:18.546Z,24.4771
2024-04-06T11:44:19.805Z,24.1596
2024-04-06T11:45:21.284Z,24.1188
2024-04-06T11:46:22.754Z,24.6362
2024-04-06T11:47:24.147Z,24.8932
2024-04-06T11:48:26.982Z,24.8944
2024-04-06T11:49:26.108Z,24.8223
2024-04-06T11:50:27.421Z,25.4379
2024-04-06T11:51:28.762Z,25.5835
2024-04-06T11:52:30.037Z,25.7221
2024-04-06T11:53:31.518Z,25.2564
2024-04-06T11:54:32.945Z,25.2505
2024-04-06T11:55:34.387Z,25.9266
2024-04-06T11:56:35.806Z,25.7130
2024-04-06T11:57:37.266Z,26.0535
2024-04-06T11:58:38.533Z,26.1253
2024-04-06T11:59:39.854Z,25.3113
2024-04-06T12:00:41.279Z,24.8555
2024-04-06T12:01:42.711Z,25.8014
2024-04-06T12:02:44.144Z,27.4942
2024-04-06T12:03:45.630Z,26.6575
2024-04-06T12:04:47.022Z,26.2295
2024-04-06T12:05:48.467Z,26.5376
2024-04-06T12:06:49.934Z,27.0976
2024-04-06T12:07:51.344Z,27.0115
2024-04-06T12:08:52.762Z,26.3286
2024-04-06T12:09:54.225Z,27.4567
2024-04-06T12:10:55.656Z,27.4190
2024-04-06T12:11:59.143Z,27.3758
2024-04-06T12:13:00.528Z,27.0818
2024-04-06T12:14:01.898Z,26.1935
2024-04-06T12:15:03.188Z,26.7288
2024-04-06T12:16:04.509Z,27.9812
2024-04-06T12:17:05.824Z,27.9069
2024-04-06T12:18:07.141Z,27.7490
2024-04-06T12:19:08.457Z,27.5668
2024-04-06T12:20:09.922Z,28.0417
2024-04-06T12:21:11.331Z,27.5128
2024-04-06T12:22:12.777Z,25.9480
2024-04-06T12:23:14.221Z,26.2191
2024-04-06T12:24:15.686Z,27.6340
2024-04-06T12:25:17.160Z,27.3678
2024-04-06T12:26:18.537Z,26.5108
2024-04-06T12:27:19.864Z,26.2285
2024-04-06T12:28:21.157Z,25.9002